createdAt,value
2022-11-24T00:01:40.819Z,9.55
2022-11-24T01:24:28.154Z,10.30
2022-11-24T06:17:15.273Z,13.13
2022-11-24T06:20:42.231Z,15.45
2022-11-24T06:49:32.779Z,8.60
2022-11-24T06:53:28.983Z,8.95
2022-11-24T07:39:01.818Z,8.02
2022-11-24T07:41:56.030Z,9.60
2022-11-24T07:44:47.260Z,8.43
2022-11-24T07:47:40.940Z,8.43
2022-11-24T07:50:31.624Z,9.55
2022-11-24T07:53:19.766Z,9.15
2022-11-24T07:56:12.502Z,8.35
2022-11-24T07:59:06.620Z,8.65
2022-11-24T08:06:15.962Z,7.72
2022-11-24T08:08:48.649Z,7.72
2022-11-24T08:12:15.824Z,9.18
2022-11-24T08:15:14.402Z,8.55
2022-11-24T08:18:22.615Z,9.27
2022-11-24T08:21:44.727Z,8.43
2022-11-24T08:28:50.228Z,8.83
2022-11-24T08:50:46.008Z,6.80
2022-11-24T08:53:50.091Z,7.72
2022-11-24T09:08:04.692Z,8.18
2022-11-24T09:11:50.636Z,8.73
2022-11-24T09:15:17.452Z,7.15
2022-11-24T09:23:23.995Z,5.13
2022-11-24T09:34:47.145Z,5.20
2022-11-24T09:38:25.755Z,5.70
2022-11-24T09:45:12.969Z,5.00
2022-11-24T09:49:03.574Z,5.07
2022-11-24T09:52:14.855Z,5.00
2022-11-24T10:02:31.186Z,5.47
2022-11-24T10:06:59.310Z,4.43
2022-11-24T11:38:45.835Z,3.38
2022-11-24T11:57:51.286Z,2.97
2022-11-24T12:01:38.591Z,2.78
2022-11-24T12:05:01.933Z,3.00
2022-11-24T12:09:18.618Z,3.15
2022-11-24T12:15:53.850Z,3.43
2022-11-24T12:19:05.996Z,3.53
2022-11-24T12:22:51.917Z,2.92
2022-11-24T12:27:00.850Z,2.75
2022-11-24T12:40:17.995Z,3.47
2022-11-24T12:47:13.970Z,3.13
2022-11-24T12:50:27.909Z,2.78
2022-11-24T12:53:36.270Z,2.58
2022-11-24T12:56:48.420Z,3.33
2022-11-24T13:03:54.721Z,2.50
2022-11-24T13:07:10.475Z,2.20
2022-11-24T13:11:46.674Z,1.98
2022-11-24T13:15:01.137Z,2.53
2022-11-24T13:19:00.165Z,2.65
2022-11-24T13:22:36.122Z,2.42
2022-11-24T13:25:45.113Z,2.92
2022-11-24T13:29:23.868Z,3.00
2022-11-24T13:32:18.546Z,2.53
2022-11-24T13:36:04.834Z,3.10
2022-11-24T13:38:54.746Z,2.65
2022-11-24T13:41:50.629Z,3.03
2022-11-24T13:44:48.523Z,2.95
2022-11-24T13:47:47.814Z,2.60
2022-11-24T13:51:01.936Z,3.65
2022-11-24T13:54:41.354Z,2.90
2022-11-24T13:57:44.250Z,2.95
2022-11-24T14:00:38.486Z,3.40
2022-11-24T14:11:00.311Z,3.20
2022-11-24T14:14:36.895Z,3.20
2022-11-24T14:17:38.540Z,3.17
2022-11-24T14:20:32.092Z,2.80
2022-11-24T14:23:24.119Z,1.92
2022-11-24T14:26:25.725Z,2.97
2022-11-24T14:29:22.042Z,2.95
2022-11-24T14:32:26.604Z,2.67
2022-11-24T14:45:25.708Z,3.05
2022-11-24T14:48:54.253Z,2.70
2022-11-24T14:52:18.228Z,2.83
2022-11-24T14:55:47.461Z,2.80
2022-11-24T14:58:42.557Z,2.70
2022-11-24T15:02:32.997Z,3.15
2022-11-24T15:09:48.397Z,3.35
2022-11-24T15:33:00.193Z,3.22
2022-11-24T15:35:52.063Z,4.85
2022-11-24T15:45:10.001Z,3.30
2022-11-24T15:47:58.126Z,3.47
2022-11-24T15:50:58.666Z,2.83
2022-11-24T16:02:22.559Z,3.92
2022-11-24T16:05:26.162Z,3.40
2022-11-24T16:08:32.067Z,3.67
2022-11-24T16:25:08.843Z,3.95
